Time;durP1;ratioP1;P1;durP2;ratioP2;P2;SDS_P1;SDS_P2;PMS_P1;PMS_P2;Temp;Humidity;BMP_temperature;BMP_pressure;BME280_temperature;BME280_humidity;BME280_pressure;Samples;Min_cycle;Max_cycle;Signal;HPM_P1;HPM_P2
2022/05/18 00:01:59;;;;;;;17.55;7.25;;;;;;;18.54;100.00;101554.81;5078800;28;20040;-76
2022/05/18 00:04:27;;;;;;;17.77;6.90;;;;;;;18.52;100.00;101555.22;5077977;28;20050;-77
2022/05/18 00:06:53;;;;;;;16.35;6.78;;;;;;;18.50;100.00;101554.91;5075641;28;20576;-77
2022/05/18 00:09:20;;;;;;;14.88;7.82;;;;;;;18.45;100.00;101546.97;5081375;28;20132;-78
2022/05/18 00:11:46;;;;;;;21.92;7.93;;;;;;;18.44;100.00;101553.81;5084227;28;20512;-77
2022/05/18 00:14:13;;;;;;;18.98;8.20;;;;;;;18.41;100.00;101556.66;5077082;28;20058;-76
2022/05/18 00:16:39;;;;;;;16.25;7.18;;;;;;;18.39;100.00;101554.28;5080237;28;20162;-76
2022/05/18 00:19:06;;;;;;;15.50;7.13;;;;;;;18.34;100.00;101540.75;5083689;28;20055;-76
2022/05/18 00:21:32;;;;;;;18.90;7.35;;;;;;;18.32;100.00;101548.03;5082569;28;20083;-76
2022/05/18 00:23:59;;;;;;;13.50;6.97;;;;;;;18.30;100.00;101551.25;5070536;28;20050;-76
2022/05/18 00:26:26;;;;;;;18.55;7.78;;;;;;;18.27;100.00;101557.72;5078577;28;20055;-75
2022/05/18 00:28:52;;;;;;;16.08;7.25;;;;;;;18.24;100.00;101554.97;5083777;28;20137;-77
2022/05/18 00:31:19;;;;;;;15.60;7.72;;;;;;;18.24;100.00;101555.78;5076439;28;20052;-76
2022/05/18 00:33:47;;;;;;;18.20;7.85;;;;;;;18.20;100.00;101551.44;5078994;28;20076;-76
2022/05/18 00:36:13;;;;;;;16.50;8.13;;;;;;;18.18;100.00;101549.09;5075449;28;20068;-76
2022/05/18 00:38:40;;;;;;;21.08;7.90;;;;;;;18.12;100.00;101552.81;5085386;28;20055;-78
2022/05/18 00:41:07;;;;;;;22.15;8.20;;;;;;;18.09;100.00;101554.44;5078151;28;20131;-76
2022/05/18 00:43:33;;;;;;;19.00;7.68;;;;;;;18.09;100.00;101560.03;5078600;28;20048;-75
2022/05/18 00:46:04;;;;;;;17.55;8.60;;;;;;;18.07;100.00;101562.50;5079604;28;20416;-76
2022/05/18 00:48:31;;;;;;;17.98;8.77;;;;;;;18.05;100.00;101558.56;5081019;28;20050;-77
2022/05/18 00:51:01;;;;;;;18.95;8.60;;;;;;;17.98;100.00;101556.66;5078929;28;20040;-76
2022/05/18 00:53:51;;;;;;;19.02;8.73;;;;;;;17.96;100.00;101559.09;5084223;28;20063;-78
2022/05/18 00:56:23;;;;;;;18.23;8.63;;;;;;;17.93;100.00;101562.75;5078589;28;20513;-77
2022/05/18 00:59:08;;;;;;;19.02;8.70;;;;;;;17.89;100.00;101571.22;5080806;28;20052;-77
2022/05/18 01:01:36;;;;;;;19.73;8.52;;;;;;;17.90;100.00;101564.41;5080171;28;20071;-79
2022/05/18 01:04:04;;;;;;;19.45;8.45;;;;;;;17.87;100.00;101578.47;5075256;28;20044;-77
2022/05/18 01:07:03;;;;;;;18.77;8.07;;;;;;;17.83;100.00;101566.53;5076836;28;20603;-77
2022/05/18 01:09:38;;;;;;;20.20;8.13;;;;;;;17.79;100.00;101577.00;5077591;28;20138;-77
2022/05/18 01:12:07;;;;;;;19.70;8.68;;;;;;;17.77;100.00;101573.84;5066749;28;20482;-79
2022/05/18 01:14:59;;;;;;;18.67;7.70;;;;;;;17.71;100.00;101569.94;5075143;28;20048;-77
2022/05/18 01:17:29;;;;;;;20.15;7.85;;;;;;;17.68;100.00;101577.19;5075939;28;20127;-76
2022/05/18 01:19:58;;;;;;;17.05;8.80;;;;;;;17.65;100.00;101574.44;5073841;28;20051;-76
2022/05/18 01:22:50;;;;;;;16.85;8.48;;;;;;;17.61;100.00;101576.50;5083125;28;20127;-75
2022/05/18 01:26:04;;;;;;;18.00;8.27;;;;;;;17.58;100.00;101577.34;5069239;28;20431;-76
2022/05/18 01:28:35;;;;;;;17.08;8.50;;;;;;;17.50;100.00;101576.69;5063802;28;20083;-77
2022/05/18 01:31:04;;;;;;;16.63;7.97;;;;;;;17.48;100.00;101584.69;5076708;28;20423;-80
2022/05/18 01:33:33;;;;;;;15.63;8.48;;;;;;;17.47;100.00;101587.91;5085300;28;20105;-78
2022/05/18 01:36:00;;;;;;;20.02;9.15;;;;;;;17.46;100.00;101589.13;5066556;28;20060;-78
2022/05/18 01:38:29;;;;;;;20.63;9.23;;;;;;;17.40;100.00;101585.19;5072303;28;20056;-76
2022/05/18 01:41:11;;;;;;;21.48;8.38;;;;;;;17.37;100.00;101598.03;5067970;28;20106;-77
2022/05/18 01:43:59;;;;;;;23.92;9.05;;;;;;;17.29;100.00;101602.16;5073823;28;20101;-77
2022/05/18 01:46:29;;;;;;;22.38;9.20;;;;;;;17.26;100.00;101593.81;5077409;28;20390;-79
2022/05/18 01:48:56;;;;;;;18.15;9.20;;;;;;;17.26;100.00;101599.41;5079978;28;20054;-77
2022/05/18 01:51:27;;;;;;;17.70;9.25;;;;;;;17.24;100.00;101597.03;5077117;28;20046;-77
2022/05/18 01:53:54;;;;;;;19.90;8.02;;;;;;;17.24;100.00;101590.63;5074568;28;20135;-78
2022/05/18 01:56:21;;;;;;;16.35;8.95;;;;;;;17.22;100.00;101590.28;5085513;28;20063;-77
2022/05/18 01:58:47;;;;;;;20.23;8.52;;;;;;;17.16;100.00;101584.38;5078378;28;20055;-77
2022/05/18 02:01:14;;;;;;;22.92;8.93;;;;;;;17.11;100.00;101598.81;5077957;28;20509;-77
2022/05/18 02:03:40;;;;;;;16.35;8.35;;;;;;;17.09;100.00;101592.06;5075070;28;20048;-78
2022/05/18 02:06:07;;;;;;;22.48;10.60;;;;;;;17.06;100.00;101590.91;5081023;28;20489;-79
2022/05/18 02:08:34;;;;;;;16.08;8.55;;;;;;;17.04;100.00;101595.34;5069040;28;20090;-78
2022/05/18 02:11:00;;;;;;;18.80;9.07;;;;;;;17.02;100.00;101590.16;5081028;28;20040;-78
2022/05/18 02:13:27;;;;;;;21.90;9.73;;;;;;;17.03;100.00;101597.31;5077999;28;20048;-78
2022/05/18 02:15:53;;;;;;;16.17;9.55;;;;;;;16.99;100.00;101591.00;5079060;28;20052;-78
2022/05/18 02:18:20;;;;;;;18.05;9.68;;;;;;;16.98;100.00;101594.22;5079633;28;20052;-78
2022/05/18 02:20:46;;;;;;;16.50;8.60;;;;;;;16.93;100.00;101580.69;5069674;28;20048;-77
2022/05/18 02:23:13;;;;;;;27.50;10.57;;;;;;;16.91;100.00;101580.34;5074880;28;20063;-77
2022/05/18 02:25:39;;;;;;;18.85;9.48;;;;;;;16.92;100.00;101593.88;5083764;28;20063;-76
2022/05/18 02:28:06;;;;;;;21.52;9.05;;;;;;;16.93;100.00;101589.88;5087452;28;20462;-77
2022/05/18 02:30:33;;;;;;;22.35;10.23;;;;;;;16.92;100.00;101595.88;5088017;28;20058;-77
2022/05/18 02:32:59;;;;;;;20.50;8.73;;;;;;;16.90;100.00;101592.69;5078587;28;20139;-78
2022/05/18 02:35:26;;;;;;;20.80;9.00;;;;;;;16.87;100.00;101591.53;5091224;28;20053;-77
2022/05/18 02:37:53;;;;;;;16.52;8.85;;;;;;;16.86;100.00;101598.34;5074128;28;20076;-77
2022/05/18 02:40:19;;;;;;;20.15;9.82;;;;;;;16.87;100.00;101593.56;5074285;28;20068;-79
2022/05/18 02:42:46;;;;;;;16.80;9.38;;;;;;;16.87;100.00;101587.97;5073528;28;20532;-77
2022/05/18 02:45:13;;;;;;;18.65;9.00;;;;;;;16.86;100.00;101589.16;5081994;28;20051;-77
2022/05/18 02:47:40;;;;;;;20.67;8.80;;;;;;;16.85;100.00;101582.81;5088355;28;20059;-76
2022/05/18 02:50:07;;;;;;;20.92;9.07;;;;;;;16.85;100.00;101587.59;5081302;28;20135;-79
2022/05/18 02:52:35;;;;;;;19.10;9.50;;;;;;;16.81;100.00;101590.41;5079078;28;20052;-77
2022/05/18 02:57:49;;;;;;;19.38;9.30;;;;;;;16.73;100.00;101576.94;5089460;28;20078;-77
2022/05/18 03:00:15;;;;;;;15.52;8.65;;;;;;;16.74;100.00;101578.56;5084579;28;20050;-77
2022/05/18 03:02:42;;;;;;;17.90;9.25;;;;;;;16.73;100.00;101583.34;5080619;28;20155;-77
2022/05/18 03:05:08;;;;;;;17.70;8.80;;;;;;;16.72;100.00;101587.34;5080720;28;20498;-77
2022/05/18 03:07:35;;;;;;;17.63;9.50;;;;;;;16.73;100.00;101588.13;5079949;28;20416;-76
2022/05/18 03:10:03;;;;;;;16.95;8.48;;;;;;;16.70;100.00;101583.38;5073172;28;20135;-77
2022/05/18 03:12:30;;;;;;;20.58;10.02;;;;;;;16.69;100.00;101591.00;5078940;28;20048;-76
2022/05/18 03:14:56;;;;;;;16.73;9.30;;;;;;;16.68;100.00;101591.41;5085398;28;20116;-77
2022/05/18 03:17:23;;;;;;;18.10;9.20;;;;;;;16.63;100.00;101589.84;5090082;28;20047;-77
2022/05/18 03:19:49;;;;;;;18.17;9.65;;;;;;;16.67;100.00;101593.41;5084467;28;20044;-77
2022/05/18 03:25:02;;;;;;;15.63;8.75;;;;;;;16.66;100.00;101589.03;5087923;28;20131;-78
2022/05/18 03:27:29;;;;;;;18.50;8.63;;;;;;;16.66;100.00;101600.19;5085048;28;20122;-78
2022/05/18 03:29:55;;;;;;;18.23;9.50;;;;;;;16.64;100.00;101596.25;5083838;28;20151;-76
2022/05/18 03:32:22;;;;;;;18.38;9.20;;;;;;;16.65;100.00;101595.03;5085392;28;20048;-77
2022/05/18 03:34:50;;;;;;;16.75;8.48;;;;;;;16.64;100.00;101602.59;5090845;28;20059;-77
2022/05/18 03:37:17;;;;;;;18.10;9.13;;;;;;;16.59;100.00;101602.28;5074578;28;20473;-76
2022/05/18 03:39:45;;;;;;;15.98;8.50;;;;;;;16.54;100.00;101603.53;5080570;28;20052;-77
2022/05/18 03:42:11;;;;;;;17.40;8.52;;;;;;;16.49;100.00;101601.19;5068574;28;20060;-77
2022/05/18 03:44:38;;;;;;;18.45;10.30;;;;;;;16.51;100.00;101606.38;5082290;28;20051;-77
2022/05/18 03:47:04;;;;;;;20.67;9.77;;;;;;;16.50;100.00;101613.94;5079147;28;20504;-76
2022/05/18 03:49:31;;;;;;;22.88;11.63;;;;;;;16.50;100.00;101613.19;5084042;28;20058;-78
2022/05/18 03:51:58;;;;;;;18.00;9.35;;;;;;;16.49;100.00;101612.38;5083021;28;20048;-76
2022/05/18 03:54:25;;;;;;;16.83;8.82;;;;;;;16.49;100.00;101611.56;5077620;28;20050;-77
2022/05/18 03:56:51;;;;;;;18.17;9.27;;;;;;;16.49;100.00;101612.38;5095551;28;20430;-78
2022/05/18 03:59:18;;;;;;;19.30;9.20;;;;;;;16.51;100.00;101614.75;5075880;28;20040;-79
2022/05/18 04:01:44;;;;;;;21.77;9.18;;;;;;;16.49;100.00;101615.16;5080738;28;20190;-77
2022/05/18 04:04:11;;;;;;;20.83;9.63;;;;;;;16.53;100.00;101618.72;5074157;28;20083;-76
2022/05/18 04:06:38;;;;;;;17.02;9.07;;;;;;;16.48;100.00;101613.59;5068913;28;20515;-77
2022/05/18 04:09:04;;;;;;;17.38;9.18;;;;;;;16.52;100.00;101622.72;5072564;28;20051;-77
2022/05/18 04:11:31;;;;;;;16.77;8.90;;;;;;;16.53;100.00;101629.09;5085712;28;20041;-77
2022/05/18 04:13:57;;;;;;;19.05;9.77;;;;;;;16.55;100.00;101632.25;5084515;28;20047;-76
2022/05/18 04:16:24;;;;;;;20.48;11.15;;;;;;;16.57;100.00;101633.44;5082905;28;20048;-75
2022/05/18 04:18:51;;;;;;;19.70;9.00;;;;;;;16.59;100.00;101633.00;5082805;28;20052;-75
2022/05/18 04:21:17;;;;;;;17.10;8.77;;;;;;;16.64;100.00;101635.38;5085142;28;20519;-76
2022/05/18 04:23:44;;;;;;;16.58;9.73;;;;;;;16.66;100.00;101635.72;5085491;28;20082;-76
2022/05/18 04:26:10;;;;;;;19.92;9.15;;;;;;;16.66;100.00;101636.53;5082831;28;20048;-76
2022/05/18 04:28:37;;;;;;;21.08;9.13;;;;;;;16.71;100.00;101649.25;5072185;28;20048;-76
2022/05/18 04:31:04;;;;;;;20.20;9.60;;;;;;;16.73;100.00;101639.25;5085837;28;20082;-75
2022/05/18 04:33:31;;;;;;;18.65;9.75;;;;;;;16.75;100.00;101644.41;5081547;28;20584;-76
2022/05/18 04:36:02;;;;;;;20.73;9.18;;;;;;;16.76;100.00;101644.00;5082766;28;20048;-77
2022/05/18 04:38:29;;;;;;;17.63;9.18;;;;;;;16.79;100.00;101650.75;5074378;28;20044;-78
2022/05/18 04:40:56;;;;;;;22.52;11.10;;;;;;;16.83;100.00;101651.50;5074554;28;20777;-76
2022/05/18 04:43:24;;;;;;;23.48;11.23;;;;;;;16.88;100.00;101656.63;5077209;28;20591;-76
2022/05/18 04:45:51;;;;;;;23.10;10.98;;;;;;;16.91;100.00;101658.59;5079144;28;20405;-77
2022/05/18 04:48:20;;;;;;;20.85;9.95;;;;;;;17.00;100.00;101661.66;5077979;28;20048;-76
2022/05/18 04:50:50;;;;;;;19.25;10.57;;;;;;;17.07;100.00;101658.78;5084523;28;20477;-77
2022/05/18 04:53:18;;;;;;;22.02;11.10;;;;;;;17.13;100.00;101660.72;5072042;28;20131;-77
2022/05/18 04:55:45;;;;;;;20.35;10.35;;;;;;;17.20;100.00;101662.59;5089636;28;20071;-75
2022/05/18 04:58:12;;;;;;;19.10;10.00;;;;;;;17.26;100.00;101664.53;5081002;28;20052;-77
2022/05/18 05:00:40;;;;;;;17.80;9.82;;;;;;;17.36;100.00;101668.38;5072500;28;20052;-77
2022/05/18 05:03:06;;;;;;;23.63;9.95;;;;;;;17.43;100.00;101673.91;5077323;28;20136;-76
2022/05/18 05:05:33;;;;;;;19.75;9.18;;;;;;;17.49;100.00;101677.84;5080502;28;20462;-76
2022/05/18 05:08:00;;;;;;;17.55;8.77;;;;;;;17.60;100.00;101679.28;5079385;28;20061;-77
2022/05/18 05:10:26;;;;;;;21.05;9.45;;;;;;;17.70;100.00;101683.13;5068677;28;20087;-76
2022/05/18 05:12:53;;;;;;;18.80;10.30;;;;;;;17.78;100.00;101687.38;5074521;28;20420;-76
2022/05/18 05:15:20;;;;;;;23.02;9.45;;;;;;;17.85;100.00;101690.06;5078868;28;20080;-77
2022/05/18 05:17:47;;;;;;;17.85;9.77;;;;;;;17.98;100.00;101693.09;5080856;28;20110;-77
2022/05/18 05:20:14;;;;;;;16.90;8.90;;;;;;;18.08;100.00;101680.94;5079861;28;20048;-76
2022/05/18 05:22:41;;;;;;;17.08;9.05;;;;;;;18.19;100.00;101690.72;5072238;28;20062;-77
2022/05/18 05:25:08;;;;;;;21.98;8.85;;;;;;;18.31;100.00;101694.91;5080469;28;20052;-77
2022/05/18 05:27:35;;;;;;;25.10;9.27;;;;;;;18.41;100.00;101703.19;5082083;28;20052;-76
2022/05/18 05:30:03;;;;;;;16.77;8.85;;;;;;;18.50;100.00;101694.22;5082192;28;20125;-76
2022/05/18 05:32:29;;;;;;;17.17;9.00;;;;;;;18.61;100.00;101695.59;5080348;28;21403;-77
2022/05/18 05:34:56;;;;;;;18.17;8.98;;;;;;;18.71;100.00;101696.63;5081258;28;20048;-76
2022/05/18 05:37:22;;;;;;;21.35;8.43;;;;;;;18.83;100.00;101693.97;5068948;28;20528;-77
2022/05/18 05:39:49;;;;;;;16.17;6.72;;;;;;;18.93;100.00;101687.34;5068484;28;20135;-77
2022/05/18 05:42:15;;;;;;;15.43;7.05;;;;;;;19.05;100.00;101694.34;5080188;28;20492;-76
2022/05/18 05:44:43;;;;;;;14.50;6.55;;;;;;;19.16;100.00;101686.47;5075470;28;20420;-76
2022/05/18 05:47:11;;;;;;;14.63;6.63;;;;;;;19.28;100.00;101691.47;5079982;28;20047;-76
2022/05/18 05:49:39;;;;;;;14.27;6.60;;;;;;;19.36;100.00;101696.50;5077226;28;20052;-78
2022/05/18 05:52:07;;;;;;;16.70;6.70;;;;;;;19.43;100.00;101693.53;5085146;28;20059;-80
2022/05/18 05:54:35;;;;;;;17.65;7.53;;;;;;;19.54;100.00;101696.13;5085123;28;20067;-81
2022/05/18 05:57:04;;;;;;;16.17;6.95;;;;;;;19.66;100.00;101696.25;5109178;28;20086;-82
2022/05/18 05:59:33;;;;;;;16.25;6.22;;;;;;;19.74;100.00;101685.59;5085139;28;20076;-83
2022/05/18 06:02:01;;;;;;;15.15;6.88;;;;;;;19.90;100.00;101694.88;5085348;28;20052;-81
2022/05/18 06:04:32;;;;;;;12.65;5.75;;;;;;;20.05;100.00;101696.09;5086010;28;20048;-81
2022/05/18 06:06:58;;;;;;;11.70;4.60;;;;;;;20.25;100.00;101685.56;5102955;28;20051;-81
2022/05/18 06:09:25;;;;;;;15.73;5.03;;;;;;;20.50;100.00;101698.19;5088443;28;20117;-80
2022/05/18 06:11:52;;;;;;;9.85;4.47;;;;;;;20.67;100.00;101694.13;5085554;28;20112;-82
2022/05/18 06:14:19;;;;;;;15.52;4.45;;;;;;;20.82;100.00;101693.28;5090925;28;20076;-80
2022/05/18 06:16:47;;;;;;;13.75;4.20;;;;;;;20.98;100.00;101698.91;5102565;28;20051;-82
2022/05/18 06:19:14;;;;;;;10.20;4.13;;;;;;;21.11;100.00;101701.75;5090236;28;20058;-81
2022/05/18 06:21:41;;;;;;;10.85;4.15;;;;;;;21.20;100.00;101699.06;5094434;28;20551;-80
2022/05/18 06:24:08;;;;;;;14.00;4.97;;;;;;;21.30;100.00;101707.22;5089586;28;20135;-81
2022/05/18 06:26:36;;;;;;;7.90;3.67;;;;;;;21.46;100.00;101712.75;5093561;28;20591;-81
2022/05/18 06:29:04;;;;;;;12.35;4.57;;;;;;;21.67;100.00;101716.94;5094408;28;20040;-81
2022/05/18 06:31:31;;;;;;;14.23;4.10;;;;;;;21.79;98.99;101713.38;5088125;28;20041;-80
2022/05/18 06:34:04;;;;;;;17.00;5.03;;;;;;;21.90;99.28;101719.47;5081129;28;20055;-80
2022/05/18 06:36:31;;;;;;;11.55;4.22;;;;;;;21.98;95.65;101710.34;5090153;28;20048;-79
2022/05/18 06:38:58;;;;;;;9.38;4.68;;;;;;;22.12;91.59;101717.53;5077822;28;20063;-81
2022/05/18 06:41:32;;;;;;;11.38;5.13;;;;;;;22.29;94.18;101713.34;5071159;28;20131;-79
2022/05/18 06:44:02;;;;;;;11.82;5.03;;;;;;;22.36;93.71;101721.56;5074133;28;20398;-79
2022/05/18 06:46:31;;;;;;;9.95;4.25;;;;;;;22.45;91.20;101718.84;5081860;28;20051;-71
2022/05/18 06:48:58;;;;;;;12.13;4.03;;;;;;;22.53;91.88;101711.72;5070679;28;20088;-70
2022/05/18 06:51:31;;;;;;;7.72;3.42;;;;;;;22.62;89.65;101721.06;5075876;28;20091;-72
2022/05/18 06:53:58;;;;;;;13.20;3.95;;;;;;;22.84;89.11;101706.22;5069868;28;20051;-74
2022/05/18 06:56:32;;;;;;;11.60;3.85;;;;;;;22.92;85.69;101707.53;5086287;28;20048;-75
2022/05/18 06:58:59;;;;;;;13.20;3.88;;;;;;;23.11;86.37;101706.44;5085032;28;20108;-73
2022/05/18 07:01:28;;;;;;;8.60;3.20;;;;;;;23.15;82.89;101707.84;5078960;28;20158;-74
2022/05/18 07:03:56;;;;;;;11.40;3.45;;;;;;;23.22;76.25;101701.97;5075749;28;20068;-74
2022/05/18 07:06:29;;;;;;;6.40;3.10;;;;;;;23.40;76.72;101709.75;5079676;28;20408;-73
2022/05/18 07:08:55;;;;;;;7.43;2.85;;;;;;;23.50;75.59;101700.91;5090303;28;20527;-74
2022/05/18 07:11:23;;;;;;;7.30;2.83;;;;;;;23.71;74.55;101711.34;5068598;28;20052;-73
2022/05/18 07:13:54;;;;;;;7.30;2.70;;;;;;;23.80;70.68;101705.75;5081221;28;20522;-74
2022/05/18 07:16:22;;;;;;;6.25;2.40;;;;;;;23.94;68.21;101708.03;5084940;28;20091;-74
2022/05/18 07:18:49;;;;;;;4.82;2.28;;;;;;;24.02;64.41;101705.69;5080747;28;20055;-74
2022/05/18 07:21:16;;;;;;;5.28;2.58;;;;;;;24.22;68.68;101712.50;5081229;28;20683;-77
2022/05/18 07:23:43;;;;;;;4.68;1.70;;;;;;;24.29;64.10;101700.09;5082911;28;20587;-70
2022/05/18 07:26:10;;;;;;;8.63;2.60;;;;;;;24.45;65.82;101708.31;5087428;28;20131;-70
2022/05/18 07:28:36;;;;;;;6.68;2.83;;;;;;;24.58;65.81;101711.78;5082692;28;20052;-70
2022/05/18 07:31:05;;;;;;;6.00;1.65;;;;;;;24.59;60.99;101702.03;5086699;28;20084;-72
2022/05/18 07:33:34;;;;;;;6.82;2.72;;;;;;;24.68;64.61;101704.91;5074201;28;20386;-75
2022/05/18 07:36:02;;;;;;;6.25;2.50;;;;;;;24.75;61.66;101713.88;5079782;28;20052;-75
2022/05/18 07:38:31;;;;;;;4.78;2.95;;;;;;;24.82;58.82;101712.78;5081003;28;20494;-74
2022/05/18 07:41:10;;;;;;;10.05;2.95;;;;;;;24.96;60.15;101710.09;5069843;28;20056;-73
2022/05/18 07:43:37;;;;;;;4.82;2.05;;;;;;;24.97;57.43;101711.66;5082628;28;20127;-74
2022/05/18 07:46:05;;;;;;;6.88;2.50;;;;;;;25.09;59.67;101704.25;5077297;28;20730;-75
2022/05/18 07:48:32;;;;;;;5.45;2.50;;;;;;;25.18;58.63;101705.03;5080447;28;20052;-73
2022/05/18 07:50:59;;;;;;;13.98;1.05;;;;;;;25.21;55.31;101717.47;5087424;28;20558;-73
2022/05/18 07:53:26;;;;;;;9.23;3.05;;;;;;;25.40;59.03;101709.72;5072677;28;20048;-73
2022/05/18 07:55:53;;;;;;;6.65;2.47;;;;;;;25.43;56.75;101717.28;5090920;28;20098;-73
2022/05/18 07:58:21;;;;;;;10.32;3.00;;;;;;;25.48;57.27;101708.16;5082072;28;20147;-73
2022/05/18 08:00:48;;;;;;;9.93;2.45;;;;;;;25.53;55.10;101719.63;5082360;28;20055;-74
2022/05/18 08:03:16;;;;;;;8.07;2.70;;;;;;;25.64;54.84;101724.81;5085053;28;20044;-74
2022/05/18 08:05:44;;;;;;;3.65;1.70;;;;;;;25.64;52.79;101719.13;5076221;28;20053;-75
2022/05/18 08:08:15;;;;;;;6.25;2.30;;;;;;;25.73;52.13;101719.09;5071397;28;20079;-75
2022/05/18 08:16:16;;;;;;;6.85;2.47;;;;;;;25.87;51.42;101712.72;5075073;28;20121;-72
2022/05/18 08:18:44;;;;;;;3.60;1.48;;;;;;;25.81;49.42;101712.59;5073205;28;20048;-76
2022/05/18 08:21:10;;;;;;;2.80;0.80;;;;;;;25.97;49.74;101720.75;5086592;28;20109;-70
2022/05/18 08:23:37;;;;;;;5.82;2.55;;;;;;;26.12;50.05;101718.00;5075124;28;20048;-70
2022/05/18 08:26:03;;;;;;;11.48;3.00;;;;;;;26.20;49.47;101710.69;5068995;28;20580;-70
2022/05/18 08:28:31;;;;;;;4.30;1.42;;;;;;;26.27;49.42;101718.84;5080851;28;20471;-72
2022/05/18 08:30:58;;;;;;;2.50;1.17;;;;;;;26.30;47.27;101720.72;5085705;28;20105;-71
2022/05/18 08:33:26;;;;;;;3.33;1.42;;;;;;;26.43;49.12;101719.25;5086153;28;20508;-72
2022/05/18 08:35:54;;;;;;;6.50;1.70;;;;;;;26.46;47.99;101723.16;5079813;28;20597;-72
2022/05/18 08:38:21;;;;;;;1.23;0.75;;;;;;;26.53;47.88;101722.78;5074947;28;20497;-73
2022/05/18 08:41:11;;;;;;;1.73;1.15;;;;;;;26.57;45.98;101724.19;5076637;28;20139;-76
2022/05/18 08:43:42;;;;;;;3.08;1.55;;;;;;;26.64;46.34;101711.69;5076598;28;20127;-75
2022/05/18 08:46:18;;;;;;;6.40;2.60;;;;;;;26.75;46.52;101717.59;5078748;28;20056;-74
2022/05/18 08:48:48;;;;;;;8.02;2.65;;;;;;;26.68;45.97;101713.09;5080320;28;20085;-74
2022/05/18 08:51:26;;;;;;;1.73;1.17;;;;;;;26.67;44.88;101717.22;5084653;28;20141;-74
2022/05/18 08:54:24;;;;;;;6.55;2.28;;;;;;;26.91;46.39;101712.28;5083044;28;20054;-74
2022/05/18 08:56:53;;;;;;;8.50;2.65;;;;;;;26.99;46.76;101718.34;5093286;28;20463;-76
2022/05/18 08:59:25;;;;;;;4.40;1.30;;;;;;;26.99;45.70;101718.34;5079541;28;20476;-75
2022/05/18 09:01:56;;;;;;;3.78;1.77;;;;;;;27.02;44.47;101718.16;5081014;28;20894;-75
2022/05/18 09:04:22;;;;;;;2.55;1.08;;;;;;;27.15;44.90;101717.88;5082275;28;20044;-70
2022/05/18 09:07:05;;;;;;;8.07;2.25;;;;;;;27.22;45.01;101720.34;5083505;28;20051;-75
2022/05/18 09:10:14;;;;;;;1.95;0.80;;;;;;;27.17;45.10;101727.47;5070068;28;20056;-77
2022/05/18 09:12:49;;;;;;;5.43;2.72;;;;;;;27.25;44.62;101717.34;5074249;28;20055;-76
2022/05/18 09:15:35;;;;;;;7.05;2.88;;;;;;;27.35;45.11;101709.50;5074888;28;20141;-73
2022/05/18 09:18:09;;;;;;;;;;;;;;;27.53;45.57;101725.59;5075445;28;20048;-75
2022/05/18 09:21:18;;;;;;;7.10;2.63;;;;;;;27.65;43.66;101721.63;5078678;28;20643;-75
2022/05/18 09:24:14;;;;;;;2.58;1.63;;;;;;;27.52;43.89;101713.41;5078052;28;20105;-77
2022/05/18 09:26:50;;;;;;;;;;;;;;;27.68;43.95;101712.94;5052300;28;20061;-75
2022/05/18 09:29:22;;;;;;;;;;;;;;;27.66;43.31;101711.81;5081084;28;20384;-75
2022/05/18 09:32:01;;;;;;;4.85;2.38;;;;;;;27.86;43.58;101711.94;5081274;28;20284;-77
2022/05/18 09:34:48;;;;;;;4.90;1.85;;;;;;;27.73;42.24;101723.59;5078631;28;20450;-78
2022/05/18 09:37:27;;;;;;;7.05;2.40;;;;;;;27.80;41.93;101723.19;5085755;28;20625;-74
2022/05/18 09:40:16;;;;;;;6.47;2.70;;;;;;;28.04;43.79;101721.00;5081020;28;20543;-72
2022/05/18 09:42:51;;;;;;;8.88;2.75;;;;;;;28.20;42.99;101714.78;5076019;28;20151;-75
2022/05/18 09:45:22;;;;;;;9.00;2.78;;;;;;;28.08;42.59;101715.91;5073258;28;20048;-75
2022/05/18 09:48:02;;;;;;;6.47;3.05;;;;;;;28.33;43.89;101706.69;5069134;28;20582;-75
2022/05/18 09:50:29;;;;;;;10.05;3.30;;;;;;;28.39;43.22;101712.47;5077354;28;20571;-74
2022/05/18 09:52:56;;;;;;;4.55;2.60;;;;;;;28.44;43.50;101709.72;5077976;28;20046;-76
2022/05/18 09:55:26;;;;;;;8.93;3.40;;;;;;;28.55;43.61;101714.78;5072992;28;20159;-74
2022/05/18 09:58:02;;;;;;;8.57;3.10;;;;;;;28.58;43.14;101705.25;5082313;28;20578;-76
2022/05/18 10:00:32;;;;;;;8.55;3.15;;;;;;;28.53;42.27;101711.66;5074536;28;20044;-75
2022/05/18 10:09:12;;;;;;;6.97;2.63;;;;;;;28.65;41.51;101699.13;5071221;28;20709;-77
2022/05/18 10:11:39;;;;;;;7.65;2.97;;;;;;;28.78;42.38;101693.84;5068958;28;20068;-77
2022/05/18 10:14:15;;;;;;;10.23;3.10;;;;;;;28.82;41.47;101694.41;5065282;28;20046;-73
2022/05/18 10:16:48;;;;;;;3.67;1.77;;;;;;;28.74;40.03;101691.22;5078272;28;20139;-75
2022/05/18 10:19:31;;;;;;;4.65;2.53;;;;;;;28.73;40.46;101700.25;5077353;28;20489;-74
2022/05/18 10:22:03;;;;;;;9.32;3.00;;;;;;;28.83;40.84;101693.91;5077585;28;20047;-77
2022/05/18 10:24:51;;;;;;;9.07;3.08;;;;;;;28.93;41.20;101692.47;5076546;28;20044;-76
2022/05/18 10:27:21;;;;;;;8.95;3.22;;;;;;;28.92;40.74;101693.72;5076521;28;20139;-75
2022/05/18 10:30:13;;;;;;;5.80;2.38;;;;;;;28.95;38.25;101687.03;5083524;28;20078;-74
2022/05/18 10:32:52;;;;;;;8.02;3.03;;;;;;;29.10;39.11;101684.13;5078910;28;20050;-75
2022/05/18 10:35:47;;;;;;;6.80;2.65;;;;;;;29.02;38.26;101686.63;5080516;28;20093;-74
2022/05/18 10:38:20;;;;;;;;;;;;;;;29.16;38.76;101674.31;5074981;28;20086;-76
2022/05/18 10:40:47;;;;;;;6.28;2.67;;;;;;;29.48;39.13;101678.78;5083694;28;19966;-76
2022/05/18 10:43:32;;;;;;;4.80;2.17;;;;;;;29.57;38.49;101681.44;5068730;28;20040;-76
2022/05/18 10:46:17;;;;;;;6.45;2.70;;;;;;;29.41;38.09;101678.44;5072416;28;20229;-78
2022/05/18 10:48:56;;;;;;;8.57;3.13;;;;;;;29.61;38.97;101673.47;5074280;28;20465;-76
2022/05/18 10:51:52;;;;;;;7.88;2.72;;;;;;;29.74;37.43;101667.34;5085884;28;20096;-76
2022/05/18 10:54:21;;;;;;;7.13;2.95;;;;;;;29.85;37.83;101669.47;5080488;28;20047;-76
2022/05/18 10:56:49;;;;;;;5.00;2.53;;;;;;;29.81;37.37;101663.22;5086442;28;20052;-76
2022/05/18 10:59:36;;;;;;;8.45;2.97;;;;;;;30.03;38.31;101654.81;5082284;28;20141;-74
2022/05/18 11:02:14;;;;;;;4.63;2.13;;;;;;;29.88;37.20;101659.91;5083978;28;20127;-75
2022/05/18 11:05:05;;;;;;;5.22;2.40;;;;;;;29.94;36.30;101655.81;5072905;28;20102;-76
2022/05/18 11:07:32;;;;;;;6.70;2.70;;;;;;;30.04;35.68;101650.69;5083031;28;20056;-76
2022/05/18 11:09:59;;;;;;;8.15;2.78;;;;;;;30.28;36.28;101657.59;5095082;28;20158;-74
2022/05/18 11:12:43;;;;;;;5.55;2.78;;;;;;;30.23;35.93;101652.63;5076891;28;20048;-75
2022/05/18 11:15:25;;;;;;;2.80;1.38;;;;;;;30.21;36.40;101648.72;5073935;28;20068;-77
2022/05/18 11:18:27;;;;;;;6.07;3.13;;;;;;;30.26;35.82;101645.13;5070317;28;20150;-76
2022/05/18 11:21:13;;;;;;;2.95;1.73;;;;;;;30.22;34.74;101642.50;5036459;28;20052;-74
2022/05/18 11:24:18;;;;;;;5.40;2.75;;;;;;;30.46;35.19;101647.78;5065442;28;20136;-75
2022/05/18 11:26:53;;;;;;;4.28;2.10;;;;;;;30.54;34.72;101654.59;5065792;28;20088;-75
2022/05/18 11:29:29;;;;;;;4.85;2.67;;;;;;;30.65;33.84;101646.84;5069503;28;20066;-74
2022/05/18 11:32:26;;;;;;;5.43;2.70;;;;;;;30.77;34.87;101650.53;5064034;28;20462;-74
2022/05/18 11:34:59;;;;;;;4.82;2.15;;;;;;;30.68;34.15;101645.00;5065974;28;20036;-75
2022/05/18 11:37:44;;;;;;;4.63;2.50;;;;;;;30.96;34.39;101643.81;5065417;28;20080;-76
2022/05/18 11:40:45;;;;;;;5.95;2.10;;;;;;;30.77;33.42;101645.59;5065358;28;20043;-75
2022/05/18 11:43:43;;;;;;;5.40;2.50;;;;;;;31.06;32.66;101642.28;5064912;28;20531;-77
2022/05/18 11:46:40;;;;;;;5.82;2.80;;;;;;;31.27;33.91;101637.09;5062144;28;20701;-75
2022/05/18 11:49:44;;;;;;;7.15;2.33;;;;;;;30.93;32.50;101641.19;5062335;28;20056;-75
2022/05/18 11:52:20;;;;;;;8.30;2.97;;;;;;;30.99;32.78;101639.94;5059529;28;20999;-76
2022/05/18 11:55:25;;;;;;;6.78;2.88;;;;;;;30.89;32.86;101629.25;5062203;28;20041;-75